createdAt,value
2018-03-04T00:00:08.553Z,-2.04
2018-03-04T00:01:08.515Z,-2.08
2018-03-04T00:02:08.236Z,-1.94
2018-03-04T00:03:08.494Z,-1.97
2018-03-04T00:04:08.415Z,-1.97
2018-03-04T00:05:08.379Z,-1.92
2018-03-04T00:06:08.345Z,-1.92
2018-03-04T00:07:08.065Z,-1.86
2018-03-04T00:08:08.275Z,-1.9
2018-03-04T00:09:08.240Z,-1.84
2018-03-04T00:10:08.210Z,-1.82
2018-03-04T00:11:07.677Z,-1.89
2018-03-04T00:12:08.140Z,-1.84
2018-03-04T00:13:08.119Z,-1.86
2018-03-04T00:14:07.830Z,-1.82
2018-03-04T00:15:08.039Z,-1.89
2018-03-04T00:16:07.750Z,-1.83
2018-03-04T00:17:07.719Z,-1.84
2018-03-04T00:18:07.936Z,-1.8
2018-03-04T00:19:07.655Z,-1.71
2018-03-04T00:20:07.864Z,-1.76
2018-03-04T00:21:07.829Z,-1.79
2018-03-04T00:22:07.793Z,-1.71
2018-03-04T00:23:07.511Z,-1.79
2018-03-04T00:24:07.480Z,-1.74
2018-03-04T00:25:07.698Z,-1.65
2018-03-04T00:26:07.459Z,-1.71
2018-03-04T00:27:07.632Z,-1.64
2018-03-04T00:28:07.344Z,-1.71
2018-03-04T00:29:07.304Z,-1.66
2018-03-04T00:30:07.273Z,-1.65
2018-03-04T00:31:06.989Z,-1.56
2018-03-04T00:32:07.206Z,-1.64
2018-03-04T00:33:07.174Z,-1.59
2018-03-04T00:34:07.135Z,-1.61
2018-03-04T00:35:07.360Z,-1.58
2018-03-04T00:36:07.318Z,-1.58
2018-03-04T00:37:07.032Z,-1.56
2018-03-04T00:38:07.251Z,-1.59
2018-03-04T00:39:07.222Z,-1.58
2018-03-04T00:40:07.184Z,-1.58
2018-03-04T00:41:07.147Z,-1.47
2018-03-04T00:42:07.116Z,-1.54
2018-03-04T00:43:06.833Z,-1.53
2018-03-04T00:44:07.052Z,-1.59
2018-03-04T00:45:07.024Z,-1.56
2018-03-04T00:46:06.977Z,-1.54
2018-03-04T00:47:06.721Z,-1.51
2018-03-04T00:48:06.666Z,-1.53
2018-03-04T00:49:06.630Z,-1.51
2018-03-04T00:50:06.595Z,-1.53
2018-03-04T00:51:06.806Z,-1.44
2018-03-04T00:52:06.527Z,-1.46
2018-03-04T00:53:06.742Z,-1.48
2018-03-04T00:54:06.711Z,-1.47
2018-03-04T00:55:06.678Z,-1.46
2018-03-04T00:56:06.392Z,-1.5
2018-03-04T00:57:06.614Z,-1.46
2018-03-04T00:58:06.569Z,-1.37
2018-03-04T00:59:06.539Z,-1.37
2018-03-04T01:00:06.505Z,-1.43
2018-03-04T01:01:06.225Z,-1.32
2018-03-04T01:02:06.187Z,-1.43
2018-03-04T01:03:06.418Z,-1.33
2018-03-04T01:04:06.367Z,-1.38
2018-03-04T01:05:06.336Z,-1.37
2018-03-04T01:06:06.303Z,-1.32
2018-03-04T01:07:06.268Z,-1.3
2018-03-04T01:08:06.237Z,-1.27
2018-03-04T01:09:05.948Z,-1.27
2018-03-04T01:10:06.176Z,-1.19
2018-03-04T01:11:06.131Z,-1.29
2018-03-04T01:12:05.853Z,-1.17
2018-03-04T01:13:05.817Z,-1.14
2018-03-04T01:14:06.032Z,-1.17
2018-03-04T01:15:05.752Z,-1.2
2018-03-04T01:16:05.968Z,-1.15
2018-03-04T01:17:05.930Z,-1.11
2018-03-04T01:18:05.655Z,-1.15
2018-03-04T01:19:05.616Z,-1.08
2018-03-04T01:20:05.585Z,-1.07
2018-03-04T01:21:05.547Z,-1.02
2018-03-04T01:22:05.763Z,-0.9
2018-03-04T01:23:05.729Z,-0.93
2018-03-04T01:24:05.449Z,-0.94
2018-03-04T01:25:05.421Z,-0.97
2018-03-04T01:26:05.627Z,-0.93
2018-03-04T01:27:05.610Z,-0.83
2018-03-04T01:28:05.656Z,-0.89
2018-03-04T01:29:05.537Z,-0.85
2018-03-04T01:30:05.000Z,-0.86
2018-03-04T01:31:05.218Z,-0.83
2018-03-04T01:32:05.427Z,-0.85
2018-03-04T01:33:05.153Z,-0.82
2018-03-04T01:34:05.116Z,-0.85
2018-03-04T01:35:05.333Z,-0.75
2018-03-04T01:36:04.800Z,-0.77
2018-03-04T01:37:05.265Z,-0.75
2018-03-04T01:38:05.229Z,-0.77
2018-03-04T01:39:04.704Z,-0.75
2018-03-04T01:40:05.166Z,-0.75
2018-03-04T01:41:04.940Z,-0.72
2018-03-04T01:42:04.603Z,-0.77
2018-03-04T01:43:04.813Z,-0.7
2018-03-04T01:44:04.782Z,-0.7
2018-03-04T01:45:04.756Z,-0.72
2018-03-04T01:46:04.972Z,-0.71
2018-03-04T01:47:04.934Z,-0.71
2018-03-04T01:48:04.688Z,-0.77
2018-03-04T01:49:04.370Z,-0.77
2018-03-04T01:50:04.835Z,-0.68
2018-03-04T01:51:04.551Z,-0.75
2018-03-04T01:52:04.770Z,-0.67
2018-03-04T01:53:04.734Z,-0.68
2018-03-04T01:54:04.740Z,-0.64
2018-03-04T01:55:04.676Z,-0.68
2018-03-04T01:56:04.390Z,-0.67
2018-03-04T01:57:04.602Z,-0.65
2018-03-04T01:58:04.566Z,-0.67
2018-03-04T01:59:04.537Z,-0.68
2018-03-04T02:00:04.515Z,-0.67
2018-03-04T02:01:04.473Z,-0.67
2018-03-04T02:02:04.439Z,-0.65
2018-03-04T02:03:04.408Z,-0.64
2018-03-04T02:04:04.373Z,-0.72
2018-03-04T02:05:04.337Z,-0.7
2018-03-04T02:06:04.323Z,-0.7
2018-03-04T02:07:04.275Z,-0.7
2018-03-04T02:08:04.246Z,-0.61
2018-03-04T02:09:04.203Z,-0.71
2018-03-04T02:10:04.176Z,-0.65
2018-03-04T02:11:04.140Z,-0.62
2018-03-04T02:12:03.869Z,-0.62
2018-03-04T02:13:03.576Z,-0.64
2018-03-04T02:14:03.808Z,-0.59
2018-03-04T02:15:04.010Z,-0.52
2018-03-04T02:16:03.478Z,-0.47
2018-03-04T02:17:03.942Z,-0.52
2018-03-04T02:18:03.907Z,-0.43
2018-03-04T02:19:03.631Z,-0.49
2018-03-04T02:20:03.846Z,-0.32
2018-03-04T02:21:03.818Z,-0.35
2018-03-04T02:22:03.777Z,-0.31
2018-03-04T02:23:03.750Z,-0.36
2018-03-04T02:24:03.713Z,-0.31
2018-03-04T02:25:03.687Z,-0.35
2018-03-04T02:26:03.649Z,-0.35
2018-03-04T02:27:03.610Z,-0.29
2018-03-04T02:28:03.587Z,-0.29
2018-03-04T02:29:03.303Z,-0.17
2018-03-04T02:30:03.324Z,-0.2
2018-03-04T02:31:03.502Z,-0.17
2018-03-04T02:32:03.467Z,-0.15
2018-03-04T02:33:03.432Z,-0.26
2018-03-04T02:34:03.390Z,-0.26
2018-03-04T02:35:03.361Z,-0.15
2018-03-04T02:36:03.320Z,-0.18
2018-03-04T02:37:03.289Z,-0.18
2018-03-04T02:38:03.276Z,-0.18
2018-03-04T02:39:03.229Z,-0.23
2018-03-04T02:40:03.200Z,-0.23
2018-03-04T02:41:03.160Z,-0.2
2018-03-04T02:42:02.880Z,-0.18
2018-03-04T02:43:03.096Z,-0.18
2018-03-04T02:44:03.067Z,-0.21
2018-03-04T02:45:03.037Z,-0.11
2018-03-04T02:46:02.999Z,-0.25
2018-03-04T02:47:02.974Z,-0.15
2018-03-04T02:48:02.939Z,-0.11
2018-03-04T02:49:02.901Z,-0.08
2018-03-04T02:50:02.370Z,-0.02
2018-03-04T02:51:02.591Z,-0.06
2018-03-04T02:52:02.565Z,0.03
2018-03-04T02:53:02.770Z,0.03
2018-03-04T02:54:02.748Z,0.11
2018-03-04T02:55:02.462Z,0.11
2018-03-04T02:56:02.669Z,0.21
2018-03-04T02:57:02.655Z,0.28
2018-03-04T02:58:02.365Z,0.31
2018-03-04T02:59:02.325Z,0.39
2018-03-04T03:00:02.295Z,0.44
2018-03-04T03:01:02.595Z,0.6
2018-03-04T03:02:02.550Z,0.73
2018-03-04T03:03:02.824Z,0.74
2018-03-04T03:04:02.163Z,0.78
2018-03-04T03:05:02.399Z,0.78
2018-03-04T03:06:02.360Z,0.99
2018-03-04T03:07:02.070Z,1.01
2018-03-04T03:08:01.784Z,1.16
2018-03-04T03:09:02.250Z,1.23
2018-03-04T03:10:01.970Z,1.32
2018-03-04T03:11:02.185Z,1.35
2018-03-04T03:12:02.160Z,1.38
2018-03-04T03:13:02.119Z,1.44
2018-03-04T03:14:02.088Z,1.38
2018-03-04T03:15:02.060Z,1.5
2018-03-04T03:16:02.027Z,1.45
2018-03-04T03:17:01.992Z,1.52
2018-03-04T03:18:01.966Z,1.45
2018-03-04T03:19:01.689Z,1.42
2018-03-04T03:20:01.897Z,1.38
2018-03-04T03:21:01.618Z,1.32
2018-03-04T03:22:01.833Z,1.14
2018-03-04T03:23:01.802Z,1.13
2018-03-04T03:24:01.770Z,1.04
2018-03-04T03:25:01.743Z,0.91
2018-03-04T03:26:01.710Z,0.91
2018-03-04T03:27:01.428Z,0.94
2018-03-04T03:28:01.646Z,0.95
2018-03-04T03:29:01.611Z,0.94
2018-03-04T03:30:01.591Z,0.86
2018-03-04T03:31:01.743Z,0.87
2018-03-04T03:32:01.516Z,0.88
2018-03-04T03:33:01.483Z,0.88
2018-03-04T03:34:01.461Z,0.83
2018-03-04T03:35:01.430Z,0.81
2018-03-04T03:36:01.392Z,0.8
2018-03-04T03:37:01.358Z,0.65
2018-03-04T03:38:01.328Z,0.76
2018-03-04T03:39:01.296Z,0.81
2018-03-04T03:40:01.264Z,0.73
2018-03-04T03:41:01.231Z,0.66
2018-03-04T03:42:01.193Z,0.62
2018-03-04T03:43:01.168Z,0.69
2018-03-04T03:44:01.135Z,0.74
2018-03-04T03:45:01.105Z,0.7
2018-03-04T03:46:01.071Z,0.66
2018-03-04T03:47:01.040Z,0.69
2018-03-04T03:48:01.010Z,0.66
2018-03-04T03:49:00.976Z,0.59
2018-03-04T03:50:00.941Z,0.58
2018-03-04T03:51:00.661Z,0.5
2018-03-04T03:52:00.895Z,0.5
2018-03-04T03:53:00.849Z,0.55
2018-03-04T03:54:00.820Z,0.49
2018-03-04T03:55:00.786Z,0.5
2018-03-04T03:56:00.753Z,0.46
2018-03-04T03:57:00.727Z,0.44
2018-03-04T03:58:00.690Z,0.41
2018-03-04T03:59:00.658Z,0.4
2018-03-04T04:00:00.388Z,0.43
2018-03-04T04:01:00.598Z,0.44
2018-03-04T04:02:00.309Z,0.41
2018-03-04T04:03:00.278Z,0.36
2018-03-04T04:03:59.997Z,0.31
2018-03-04T04:05:00.217Z,0.32
2018-03-04T04:05:59.935Z,0.32
2018-03-04T04:06:59.904Z,0.31
2018-03-04T04:08:00.364Z,0.37
2018-03-04T04:09:00.085Z,0.4
2018-03-04T04:10:00.304Z,0.56
2018-03-04T04:11:00.023Z,0.49
2018-03-04T04:12:00.236Z,0.47
2018-03-04T04:12:59.956Z,0.59
2018-03-04T04:14:00.176Z,0.59
2018-03-04T04:14:59.896Z,0.68
2018-03-04T04:15:59.864Z,0.73
2018-03-04T04:16:59.829Z,0.69
2018-03-04T04:17:59.795Z,0.74
2018-03-04T04:19:00.015Z,0.92
2018-03-04T04:19:59.978Z,0.99
2018-03-04T04:20:59.454Z,1.08
2018-03-04T04:21:59.678Z,1.24
2018-03-04T04:22:59.642Z,1.23
2018-03-04T04:23:59.854Z,1.22
2018-03-04T04:24:59.828Z,1.23
2018-03-04T04:25:59.788Z,1.22
2018-03-04T04:26:59.757Z,1.08
2018-03-04T04:27:59.477Z,1.04
2018-03-04T04:28:59.696Z,1.14
2018-03-04T04:29:59.664Z,1.13
2018-03-04T04:30:59.632Z,1.02
2018-03-04T04:31:59.347Z,1.01
2018-03-04T04:32:59.568Z,0.98
2018-03-04T04:33:59.536Z,0.98
2018-03-04T04:34:59.255Z,0.99
2018-03-04T04:35:59.471Z,0.87
2018-03-04T04:36:59.193Z,0.88
2018-03-04T04:37:59.408Z,0.88
2018-03-04T04:38:59.385Z,0.87
2018-03-04T04:39:58.849Z,0.86
2018-03-04T04:40:59.065Z,0.83
2018-03-04T04:41:59.297Z,0.77
2018-03-04T04:42:59.002Z,0.76
2018-03-04T04:43:59.220Z,0.78
2018-03-04T04:44:59.187Z,0.76
2018-03-04T04:45:59.154Z,0.68
2018-03-04T04:46:59.120Z,0.69
2018-03-04T04:47:59.094Z,0.7
2018-03-04T04:48:58.810Z,0.69
2018-03-04T04:49:59.028Z,0.73
2018-03-04T04:50:58.997Z,0.81
2018-03-04T04:51:58.962Z,0.66
2018-03-04T04:52:58.680Z,0.76
2018-03-04T04:53:58.975Z,0.66
2018-03-04T04:54:58.865Z,0.69
2018-03-04T04:55:58.829Z,0.69
2018-03-04T04:56:58.806Z,0.73
2018-03-04T04:57:58.774Z,0.66
2018-03-04T04:58:58.737Z,0.77
2018-03-04T04:59:58.462Z,0.81
2018-03-04T05:00:58.668Z,0.77
2018-03-04T05:01:58.639Z,0.8
2018-03-04T05:02:58.611Z,0.73
2018-03-04T05:03:58.577Z,0.77
2018-03-04T05:04:58.557Z,0.8
2018-03-04T05:05:58.264Z,0.74
2018-03-04T05:06:58.381Z,0.78
2018-03-04T05:07:58.457Z,0.77
2018-03-04T05:08:58.425Z,0.78
2018-03-04T05:09:58.387Z,0.76
2018-03-04T05:10:58.358Z,0.74
2018-03-04T05:11:58.326Z,0.78
2018-03-04T05:12:58.291Z,0.74
2018-03-04T05:13:57.763Z,0.73
2018-03-04T05:14:57.979Z,0.77
2018-03-04T05:15:57.950Z,0.74
2018-03-04T05:16:57.917Z,0.76
2018-03-04T05:17:58.140Z,0.78
2018-03-04T05:18:57.849Z,0.78
2018-03-04T05:19:58.084Z,0.86
2018-03-04T05:20:57.787Z,0.78
2018-03-04T05:21:58.008Z,0.86
2018-03-04T05:22:57.722Z,0.95
2018-03-04T05:23:57.444Z,0.86
2018-03-04T05:24:57.415Z,0.92
2018-03-04T05:25:57.879Z,0.92
2018-03-04T05:26:57.847Z,0.98
2018-03-04T05:27:57.817Z,1.06
2018-03-04T05:28:57.537Z,0.98
2018-03-04T05:29:57.749Z,1.05
2018-03-04T05:30:57.469Z,1.05
2018-03-04T05:31:57.691Z,1.1
2018-03-04T05:32:57.412Z,1.19
2018-03-04T05:33:57.376Z,1.19
2018-03-04T05:34:57.344Z,1.22
2018-03-04T05:35:57.566Z,1.19
2018-03-04T05:36:57.533Z,1.26
2018-03-04T05:37:57.249Z,1.28
2018-03-04T05:38:57.218Z,1.23
2018-03-04T05:39:57.189Z,1.44
2018-03-04T05:40:57.408Z,1.34
2018-03-04T05:41:57.520Z,1.42
2018-03-04T05:42:57.102Z,1.44
2018-03-04T05:43:57.312Z,1.53
2018-03-04T05:44:57.280Z,1.55
2018-03-04T05:45:57.000Z,1.49
2018-03-04T05:46:57.216Z,1.55
2018-03-04T05:47:56.937Z,1.59
2018-03-04T05:48:57.151Z,1.7
2018-03-04T05:49:57.122Z,1.76
2018-03-04T05:50:57.093Z,1.78
2018-03-04T05:51:57.057Z,1.78
2018-03-04T05:52:57.038Z,1.88
2018-03-04T05:53:57.000Z,2.06
2018-03-04T05:54:56.967Z,2.07
2018-03-04T05:55:56.936Z,2.13
2018-03-04T05:56:56.952Z,2.17
2018-03-04T05:57:56.882Z,2.18
2018-03-04T05:58:56.843Z,2.22
2018-03-04T05:59:56.815Z,2.33
2018-03-04T06:00:56.777Z,2.38
2018-03-04T06:01:56.753Z,2.47
2018-03-04T06:02:56.720Z,2.42
2018-03-04T06:03:56.685Z,2.54
2018-03-04T06:04:56.660Z,2.61
2018-03-04T06:05:56.632Z,2.61
2018-03-04T06:06:56.347Z,2.67
2018-03-04T06:07:56.572Z,2.74
2018-03-04T06:08:56.535Z,2.79
2018-03-04T06:09:56.507Z,2.83
2018-03-04T06:10:56.474Z,2.85
2018-03-04T06:11:56.443Z,2.87
2018-03-04T06:12:56.411Z,2.92
2018-03-04T06:13:56.393Z,2.9
2018-03-04T06:14:56.353Z,3
2018-03-04T06:15:56.324Z,2.93
2018-03-04T06:16:56.287Z,3.01
2018-03-04T06:17:56.267Z,3.03
2018-03-04T06:18:56.030Z,3.03
2018-03-04T06:19:55.954Z,3
2018-03-04T06:20:56.175Z,3.14
2018-03-04T06:21:56.139Z,3.1
2018-03-04T06:22:56.112Z,3.21
2018-03-04T06:23:56.088Z,3.14
2018-03-04T06:24:56.051Z,3.18
2018-03-04T06:25:56.019Z,3.14
2018-03-04T06:26:55.742Z,3.25
2018-03-04T06:27:55.713Z,3.31
2018-03-04T06:28:55.924Z,3.26
2018-03-04T06:29:55.905Z,3.29
2018-03-04T06:30:55.625Z,3.29
2018-03-04T06:31:55.592Z,3.32
2018-03-04T06:32:55.815Z,3.41
2018-03-04T06:33:55.783Z,3.36
2018-03-04T06:34:55.758Z,3.37
2018-03-04T06:35:55.718Z,3.45
2018-03-04T06:36:55.444Z,3.34
2018-03-04T06:37:55.424Z,3.34
2018-03-04T06:38:55.389Z,3.44
2018-03-04T06:39:55.348Z,3.42
2018-03-04T06:40:55.576Z,3.53
2018-03-04T06:41:55.300Z,3.5
2018-03-04T06:42:55.269Z,3.55
2018-03-04T06:43:55.237Z,3.47
2018-03-04T06:44:55.202Z,3.45
2018-03-04T06:45:55.422Z,3.55
2018-03-04T06:46:55.409Z,3.56
2018-03-04T06:47:55.371Z,3.56
2018-03-04T06:48:55.337Z,3.53
2018-03-04T06:49:55.332Z,3.51
2018-03-04T06:50:55.276Z,3.62
2018-03-04T06:51:55.247Z,3.56
2018-03-04T06:52:55.218Z,3.59
2018-03-04T06:53:54.942Z,3.62
2018-03-04T06:54:55.156Z,3.65
2018-03-04T06:55:55.136Z,3.68
2018-03-04T06:56:54.850Z,3.63
2018-03-04T06:57:55.085Z,3.74
2018-03-04T06:58:54.795Z,3.77
2018-03-04T06:59:55.018Z,3.7
2018-03-04T07:00:54.732Z,3.76
2018-03-04T07:01:54.461Z,3.78
2018-03-04T07:02:54.928Z,3.74
2018-03-04T07:03:54.658Z,3.8
2018-03-04T07:04:54.970Z,3.8
2018-03-04T07:05:54.837Z,3.78
2018-03-04T07:06:54.848Z,3.76
2018-03-04T07:07:54.783Z,3.91
2018-03-04T07:08:54.505Z,3.84
2018-03-04T07:09:54.727Z,3.87
2018-03-04T07:10:54.703Z,3.78
2018-03-04T07:11:54.422Z,3.91
2018-03-04T07:12:54.636Z,3.92
2018-03-04T07:13:54.364Z,3.95
2018-03-04T07:14:54.333Z,3.92
2018-03-04T07:15:54.304Z,3.91
2018-03-04T07:16:54.283Z,3.91
2018-03-04T07:17:54.246Z,3.91
2018-03-04T07:18:54.474Z,3.96
2018-03-04T07:19:54.441Z,3.91
2018-03-04T07:20:54.409Z,3.91
2018-03-04T07:21:54.379Z,3.86
2018-03-04T07:22:54.350Z,4.01
2018-03-04T07:23:54.321Z,3.94
2018-03-04T07:24:54.046Z,4.05
2018-03-04T07:25:54.269Z,3.99
2018-03-04T07:26:54.240Z,4.01
2018-03-04T07:27:54.205Z,4.08
2018-03-04T07:28:54.182Z,4.04
2018-03-04T07:29:53.911Z,4.1
2018-03-04T07:30:53.875Z,4.08
2018-03-04T07:31:54.100Z,4.06
2018-03-04T07:32:54.064Z,4.1
2018-03-04T07:33:54.040Z,4.1
2018-03-04T07:34:54.009Z,4.17
2018-03-04T07:35:53.986Z,4.04
2018-03-04T07:36:53.951Z,4.06
2018-03-04T07:37:53.675Z,4.13
2018-03-04T07:38:53.647Z,4.12
2018-03-04T07:39:53.869Z,4.16
2018-03-04T07:40:53.839Z,4.16
2018-03-04T07:41:53.813Z,4.22
2018-03-04T07:42:53.786Z,4.22
2018-03-04T07:43:54.896Z,4.31
2018-03-04T07:44:53.741Z,4.28
2018-03-04T07:45:54.847Z,4.26
2018-03-04T07:46:53.685Z,4.34
2018-03-04T07:47:53.652Z,4.31
2018-03-04T07:48:53.619Z,4.32
2018-03-04T07:49:53.595Z,4.38
2018-03-04T07:50:53.567Z,4.35
2018-03-04T07:51:53.543Z,4.35
2018-03-04T07:52:53.521Z,4.4
2018-03-04T07:53:53.483Z,4.45
2018-03-04T07:54:53.496Z,4.45
2018-03-04T07:55:53.433Z,4.4
2018-03-04T07:56:53.402Z,4.49
2018-03-04T07:57:53.375Z,4.53
2018-03-04T07:58:53.354Z,4.53
2018-03-04T07:59:53.324Z,4.6
2018-03-04T08:00:53.292Z,4.55
2018-03-04T08:01:53.268Z,4.58
2018-03-04T08:02:52.988Z,4.56
2018-03-04T08:03:53.219Z,4.53
2018-03-04T08:04:53.182Z,4.59
2018-03-04T08:05:52.903Z,4.53
2018-03-04T08:06:53.123Z,4.71
2018-03-04T08:07:53.098Z,4.68
2018-03-04T08:08:53.084Z,4.77
2018-03-04T08:09:53.042Z,4.82
2018-03-04T08:10:53.029Z,4.77
2018-03-04T08:11:52.995Z,4.86
2018-03-04T08:12:52.968Z,4.89
2018-03-04T08:13:52.939Z,4.99
2018-03-04T08:14:52.909Z,4.96
2018-03-04T08:15:52.643Z,4.99
2018-03-04T08:16:52.614Z,4.96
2018-03-04T08:17:52.829Z,5.04
2018-03-04T08:18:52.817Z,5.04
2018-03-04T08:19:52.531Z,5.08
2018-03-04T08:20:52.505Z,5.11
2018-03-04T08:21:52.476Z,5.12
2018-03-04T08:22:52.702Z,5.14
2018-03-04T08:23:52.927Z,5.17
2018-03-04T08:24:52.401Z,5.32
2018-03-04T08:25:52.370Z,5.44
2018-03-04T08:26:52.351Z,5.43
2018-03-04T08:27:52.318Z,5.48
2018-03-04T08:28:52.546Z,5.61
2018-03-04T08:29:52.514Z,5.64
2018-03-04T08:30:52.250Z,5.75
2018-03-04T08:31:52.220Z,5.79
2018-03-04T08:32:52.443Z,5.8
2018-03-04T08:33:52.413Z,5.83
2018-03-04T08:34:52.142Z,5.93
2018-03-04T08:35:52.115Z,6.04
2018-03-04T08:36:52.344Z,6.01
2018-03-04T08:37:52.314Z,6.11
2018-03-04T08:38:52.296Z,6.12
2018-03-04T08:39:52.019Z,6.2
2018-03-04T08:40:52.248Z,6.12
2018-03-04T08:41:51.968Z,6.35
2018-03-04T08:42:51.947Z,6.45
2018-03-04T08:43:52.200Z,6.41
2018-03-04T08:44:51.896Z,6.48
2018-03-04T08:45:52.154Z,6.45
2018-03-04T08:46:52.097Z,6.44
2018-03-04T08:47:52.073Z,6.57
2018-03-04T08:48:52.046Z,6.54
2018-03-04T08:49:52.018Z,6.67
2018-03-04T08:50:52.057Z,6.67
2018-03-04T08:51:51.977Z,6.69
2018-03-04T08:52:51.955Z,6.77
2018-03-04T08:53:51.922Z,6.88
2018-03-04T08:54:51.649Z,6.96
2018-03-04T08:55:51.625Z,6.97
2018-03-04T08:56:51.848Z,6.95
2018-03-04T08:57:51.578Z,6.93
2018-03-04T08:58:51.962Z,7.14
2018-03-04T08:59:51.780Z,7.17
2018-03-04T09:00:51.855Z,7.21
2018-03-04T09:01:51.481Z,7.32
2018-03-04T09:02:51.709Z,7.33
2018-03-04T09:03:51.686Z,7.4
2018-03-04T09:04:51.658Z,7.42
2018-03-04T09:05:51.638Z,7.35
2018-03-04T09:06:51.632Z,7.43
2018-03-04T09:07:51.339Z,7.35
2018-03-04T09:08:51.566Z,7.4
2018-03-04T09:09:51.540Z,7.32
2018-03-04T09:10:51.268Z,7.39
2018-03-04T09:11:51.244Z,7.31
2018-03-04T09:12:51.218Z,7.32
2018-03-04T09:13:51.449Z,7.2
2018-03-04T09:14:51.441Z,7.17
2018-03-04T09:15:51.398Z,7.17
2018-03-04T09:16:51.374Z,7.14
2018-03-04T09:17:51.352Z,7.03
2018-03-04T09:18:51.323Z,7.06
2018-03-04T09:19:51.395Z,7.02
2018-03-04T09:20:50.777Z,6.95
2018-03-04T09:21:51.252Z,6.95
2018-03-04T09:22:51.226Z,6.93
2018-03-04T09:23:50.955Z,6.96
2018-03-04T09:24:51.178Z,6.93
2018-03-04T09:25:50.910Z,6.92
2018-03-04T09:26:51.126Z,6.92
2018-03-04T09:27:51.104Z,6.99
2018-03-04T09:28:51.078Z,6.96
2018-03-04T09:29:50.556Z,7.03
2018-03-04T09:30:50.783Z,6.99
2018-03-04T09:31:51.022Z,7.1
2018-03-04T09:32:50.481Z,7.07
2018-03-04T09:33:50.704Z,7.13
2018-03-04T09:34:50.682Z,7.15
2018-03-04T09:35:50.916Z,7.28
2018-03-04T09:36:51.591Z,7.31
2018-03-04T09:37:50.860Z,7.24
2018-03-04T09:38:50.828Z,7.32
2018-03-04T09:39:50.572Z,7.4
2018-03-04T09:40:50.804Z,7.4
2018-03-04T09:41:50.509Z,7.51
2018-03-04T09:42:50.732Z,7.48
2018-03-04T09:43:50.709Z,7.43
2018-03-04T09:44:51.213Z,7.5
2018-03-04T09:45:50.654Z,7.47
2018-03-04T09:46:50.634Z,7.54
2018-03-04T09:47:50.361Z,7.42
2018-03-04T09:48:50.337Z,7.48
2018-03-04T09:49:50.558Z,7.47
2018-03-04T09:50:50.536Z,7.45
2018-03-04T09:51:50.520Z,7.5
2018-03-04T09:52:50.487Z,7.5
2018-03-04T09:53:50.511Z,7.47
2018-03-04T09:54:50.439Z,7.53
2018-03-04T09:55:49.915Z,7.58
2018-03-04T09:56:50.489Z,7.53
2018-03-04T09:57:50.115Z,7.54
2018-03-04T09:58:50.339Z,7.5
2018-03-04T09:59:50.308Z,7.47
2018-03-04T10:00:50.039Z,7.54
2018-03-04T10:01:50.016Z,7.5
2018-03-04T10:02:50.247Z,7.53
2018-03-04T10:03:49.968Z,7.56
2018-03-04T10:04:50.181Z,7.61
2018-03-04T10:05:50.169Z,7.56
2018-03-04T10:06:49.888Z,7.61
2018-03-04T10:07:50.112Z,7.76
2018-03-04T10:08:49.977Z,7.75
2018-03-04T10:09:50.065Z,7.85
2018-03-04T10:10:50.206Z,7.88
2018-03-04T10:11:49.513Z,7.85
2018-03-04T10:12:49.491Z,7.83
2018-03-04T10:13:49.712Z,7.87
2018-03-04T10:14:49.941Z,7.95
2018-03-04T10:15:49.665Z,7.94
2018-03-04T10:16:49.642Z,7.93
2018-03-04T10:17:49.862Z,7.9
2018-03-04T10:18:49.839Z,7.97
2018-03-04T10:19:49.814Z,8.12
2018-03-04T10:20:49.789Z,8.03
2018-03-04T10:21:49.769Z,8.16
2018-03-04T10:22:49.739Z,8.24
2018-03-04T10:23:49.721Z,8.26
2018-03-04T10:24:49.689Z,8.37
2018-03-04T10:25:49.422Z,8.41
2018-03-04T10:26:49.642Z,8.53
2018-03-04T10:27:49.619Z,8.6
2018-03-04T10:28:49.596Z,8.74
2018-03-04T10:29:49.328Z,8.79
2018-03-04T10:30:49.549Z,8.82
2018-03-04T10:31:49.276Z,8.95
2018-03-04T10:32:49.501Z,8.99
2018-03-04T10:33:49.479Z,9.13
2018-03-04T10:34:49.456Z,9.14
2018-03-04T10:35:49.429Z,9.34
2018-03-04T10:36:49.408Z,9.46
2018-03-04T10:37:49.393Z,9.5
2018-03-04T10:38:49.369Z,9.66
2018-03-04T10:39:49.368Z,9.68
2018-03-04T10:40:49.324Z,9.77
2018-03-04T10:41:49.297Z,9.79
2018-03-04T10:42:49.275Z,9.86
2018-03-04T10:43:49.260Z,9.94
2018-03-04T10:44:49.245Z,9.92
2018-03-04T10:45:48.966Z,10.05
2018-03-04T10:46:48.942Z,10.04
2018-03-04T10:47:48.931Z,10.05
2018-03-04T10:48:48.899Z,10.13
2018-03-04T10:49:49.127Z,10.2
2018-03-04T10:50:49.106Z,10.17
2018-03-04T10:51:49.092Z,10.05
2018-03-04T10:52:48.816Z,9.99
2018-03-04T10:53:49.071Z,9.99
2018-03-04T10:54:49.052Z,10.04
2018-03-04T10:55:49.000Z,10.15
2018-03-04T10:56:48.981Z,10.05
2018-03-04T10:57:48.959Z,10.13
2018-03-04T10:58:48.994Z,10.12
2018-03-04T10:59:48.920Z,10.12
2018-03-04T11:00:48.651Z,10.09
2018-03-04T11:01:48.880Z,10.1
2018-03-04T11:02:48.605Z,10.13
2018-03-04T11:03:48.835Z,10.28
2018-03-04T11:04:48.811Z,10.25
2018-03-04T11:05:48.811Z,10.4
2018-03-04T11:06:48.770Z,10.41
2018-03-04T11:07:48.751Z,10.54
2018-03-04T11:08:48.495Z,10.57
2018-03-04T11:09:48.574Z,10.56
2018-03-04T11:10:48.838Z,10.61
2018-03-04T11:11:48.668Z,10.6
2018-03-04T11:12:48.655Z,10.63
2018-03-04T11:13:48.381Z,10.6
2018-03-04T11:14:48.615Z,10.49
2018-03-04T11:15:48.593Z,10.53
2018-03-04T11:16:48.568Z,10.49
2018-03-04T11:17:48.544Z,10.46
2018-03-04T11:18:48.273Z,10.49
2018-03-04T11:19:48.262Z,10.56
2018-03-04T11:20:48.235Z,10.48
2018-03-04T11:21:48.216Z,10.44
2018-03-04T11:22:48.440Z,10.41
2018-03-04T11:23:48.176Z,10.4
2018-03-04T11:24:48.397Z,10.46
2018-03-04T11:25:48.382Z,10.44
2018-03-04T11:26:48.355Z,10.46
2018-03-04T11:27:48.184Z,10.49
2018-03-04T11:28:48.231Z,10.61
2018-03-04T11:29:48.046Z,10.69
2018-03-04T11:30:48.023Z,10.72
2018-03-04T11:31:48.254Z,10.78
2018-03-04T11:32:48.232Z,10.84
2018-03-04T11:33:48.203Z,10.84
2018-03-04T11:34:47.685Z,10.82
2018-03-04T11:35:47.910Z,10.81
2018-03-04T11:36:47.642Z,10.79
2018-03-04T11:37:47.869Z,10.89
2018-03-04T11:38:48.098Z,10.93
2018-03-04T11:39:48.072Z,10.93
2018-03-04T11:40:48.052Z,10.93
2018-03-04T11:41:47.783Z,11.07
2018-03-04T11:42:48.028Z,11.14
2018-03-04T11:43:47.991Z,11.26
2018-03-04T11:44:47.722Z,11.33
2018-03-04T11:45:47.948Z,11.33
2018-03-04T11:46:47.926Z,11.48
2018-03-04T11:47:47.910Z,11.51
2018-03-04T11:48:47.635Z,11.59
2018-03-04T11:49:47.878Z,11.57
2018-03-04T11:50:47.842Z,11.59
2018-03-04T11:51:47.829Z,11.62
2018-03-04T11:52:47.559Z,11.72
2018-03-04T11:53:47.785Z,11.72
2018-03-04T11:54:47.769Z,11.7
2018-03-04T11:55:47.932Z,11.68
2018-03-04T11:56:47.476Z,11.62
2018-03-04T11:57:47.454Z,11.54
2018-03-04T11:58:47.536Z,11.73
2018-03-04T11:59:47.165Z,11.72
2018-03-04T12:00:47.143Z,11.8
2018-03-04T12:01:47.370Z,11.78
2018-03-04T12:02:47.599Z,11.81
2018-03-04T12:03:47.585Z,11.84
2018-03-04T12:04:47.311Z,11.83
2018-03-04T12:05:47.289Z,11.83
2018-03-04T12:06:47.325Z,11.88
2018-03-04T12:07:47.498Z,11.86
2018-03-04T12:08:47.479Z,11.88
2018-03-04T12:09:47.256Z,11.91
2018-03-04T12:10:47.193Z,11.97
2018-03-04T12:11:47.420Z,11.97
2018-03-04T12:12:47.407Z,11.87
2018-03-04T12:13:49.485Z,12
2018-03-04T12:14:47.858Z,12
2018-03-04T12:15:47.343Z,11.95
2018-03-04T12:16:47.072Z,12.02
2018-03-04T12:17:47.293Z,11.97
2018-03-04T12:18:47.268Z,11.94
2018-03-04T12:19:47.000Z,11.97
2018-03-04T12:20:47.224Z,11.88
2018-03-04T12:21:47.206Z,11.88
2018-03-04T12:22:47.183Z,11.97
2018-03-04T12:23:47.174Z,11.99
2018-03-04T12:24:47.148Z,12.06
2018-03-04T12:25:46.872Z,12.02
2018-03-04T12:26:47.101Z,11.9
2018-03-04T12:27:47.085Z,11.97
2018-03-04T12:28:46.804Z,11.97
2018-03-04T12:29:47.029Z,11.94
2018-03-04T12:30:46.768Z,11.88
2018-03-04T12:31:46.748Z,11.94
2018-03-04T12:32:46.720Z,11.91
2018-03-04T12:33:46.947Z,11.94
2018-03-04T12:34:46.926Z,11.9
2018-03-04T12:35:46.902Z,11.8
2018-03-04T12:36:46.981Z,11.88
2018-03-04T12:37:46.607Z,11.83
2018-03-04T12:38:46.588Z,11.8
2018-03-04T12:39:46.819Z,11.86
2018-03-04T12:40:46.542Z,11.83
2018-03-04T12:41:46.523Z,11.73
2018-03-04T12:42:46.749Z,11.75
2018-03-04T12:43:46.730Z,11.9
2018-03-04T12:44:46.708Z,11.94
2018-03-04T12:45:46.683Z,11.95
2018-03-04T12:46:46.661Z,12
2018-03-04T12:47:46.638Z,12.07
2018-03-04T12:48:46.617Z,12.06
2018-03-04T12:49:46.595Z,12.18
2018-03-04T12:50:46.573Z,12.12
2018-03-04T12:51:46.550Z,12.12
2018-03-04T12:52:46.533Z,12.22
2018-03-04T12:53:46.506Z,12.27
2018-03-04T12:54:46.487Z,12.25
2018-03-04T12:55:46.632Z,12.24
2018-03-04T12:56:46.439Z,12.24
2018-03-04T12:57:46.439Z,12.32
2018-03-04T12:58:46.240Z,12.31
2018-03-04T12:59:46.373Z,12.35
2018-03-04T13:00:45.855Z,12.35
2018-03-04T13:01:46.331Z,12.5
2018-03-04T13:02:46.358Z,12.5
2018-03-04T13:03:46.289Z,12.55
2018-03-04T13:04:46.266Z,12.57
2018-03-04T13:05:46.250Z,12.61
2018-03-04T13:06:46.221Z,12.58
2018-03-04T13:07:46.199Z,12.62
2018-03-04T13:08:46.176Z,12.68
2018-03-04T13:09:45.905Z,12.76